Hollins, Virginia
Current Conditions -  °F | °C
As of 3:54 PM on Thursday 18 Dec 2014 (Local Time) from KROA Reporting Station
Broken Clouds Broken Clouds  
Wind Chill: 39°   Ceiling: 10000
Heat Index: 42°   Visibility: 10mi
Dew Point: 22°   Wind: 5mph
Humidity: 45%   Direction: 230°SW
Pressure: 30.08"   Gusts: NA
Location:  37.35°N, 79.95°W
Report Text: KROA 182054Z 23004KT 10SM BKN100 BKN250 06/M06 A3008 RMK AO2 SLP191 T00561056 56012
Loading
Personal Weather Stations






























Interactive Weather Map New forecast layout! Learn more

10-Day Weather Forecast

Advertisements
Track Severe Weather on mobile